sensor_id;sensor_type;location;lat;lon;timestamp;temperature;humidity
11991;DHT22;6055;52.522;13.446;2023-02-02T00:43:17;5.10;99.90
11991;DHT22;6055;52.522;13.446;2023-02-02T00:52:39;5.10;99.90
11991;DHT22;6055;52.522;13.446;2023-02-02T01:02:53;5.10;99.90
11991;DHT22;6055;52.522;13.446;2023-02-02T01:08:25;5.10;99.90
11991;DHT22;6055;52.522;13.446;2023-02-02T01:10:50;5.00;99.90
11991;DHT22;6055;52.522;13.446;2023-02-02T01:13:16;5.00;99.90
11991;DHT22;6055;52.522;13.446;2023-02-02T01:15:41;5.00;99.90
11991;DHT22;6055;52.522;13.446;2023-02-02T01:24:10;5.00;99.90
11991;DHT22;6055;52.522;13.446;2023-02-02T01:27:07;5.00;99.90
11991;DHT22;6055;52.522;13.446;2023-02-02T01:40:50;4.90;99.90
11991;DHT22;6055;52.522;13.446;2023-02-02T01:54:44;4.90;99.90
11991;DHT22;6055;52.522;13.446;2023-02-02T02:14:28;4.90;99.90
11991;DHT22;6055;52.522;13.446;2023-02-02T02:38:35;5.30;99.90
11991;DHT22;6055;52.522;13.446;2023-02-02T02:41:28;5.30;99.90
11991;DHT22;6055;52.522;13.446;2023-02-02T02:44:44;5.30;99.90
11991;DHT22;6055;52.522;13.446;2023-02-02T02:54:46;5.30;99.90
11991;DHT22;6055;52.522;13.446;2023-02-02T03:04:44;5.40;99.90
11991;DHT22;6055;52.522;13.446;2023-02-02T03:19:01;5.50;99.90
11991;DHT22;6055;52.522;13.446;2023-02-02T03:21:33;5.40;99.90
11991;DHT22;6055;52.522;13.446;2023-02-02T03:42:42;5.50;99.90
11991;DHT22;6055;52.522;13.446;2023-02-02T03:58:27;5.40;99.90
11991;DHT22;6055;52.522;13.446;2023-02-02T04:00:53;5.40;99.90
11991;DHT22;6055;52.522;13.446;2023-02-02T04:03:21;5.40;99.90
11991;DHT22;6055;52.522;13.446;2023-02-02T04:05:49;5.40;99.90
11991;DHT22;6055;52.522;13.446;2023-02-02T04:08:15;5.40;99.90
11991;DHT22;6055;52.522;13.446;2023-02-02T04:10:41;5.40;99.90
11991;DHT22;6055;52.522;13.446;2023-02-02T04:13:07;5.40;99.90
11991;DHT22;6055;52.522;13.446;2023-02-02T04:15:32;5.40;99.90
11991;DHT22;6055;52.522;13.446;2023-02-02T04:18:53;5.40;99.90
11991;DHT22;6055;52.522;13.446;2023-02-02T04:21:43;5.40;99.90
11991;DHT22;6055;52.522;13.446;2023-02-02T04:28:01;5.40;99.90
11991;DHT22;6055;52.522;13.446;2023-02-02T04:34:23;5.40;99.90
11991;DHT22;6055;52.522;13.446;2023-02-02T04:38:40;5.40;99.90
11991;DHT22;6055;52.522;13.446;2023-02-02T05:31:27;5.30;99.90
11991;DHT22;6055;52.522;13.446;2023-02-02T05:38:30;5.30;99.90
11991;DHT22;6055;52.522;13.446;2023-02-02T05:45:09;5.30;99.90
11991;DHT22;6055;52.522;13.446;2023-02-02T05:48:33;5.30;99.90
11991;DHT22;6055;52.522;13.446;2023-02-02T05:51:38;5.30;99.90
11991;DHT22;6055;52.522;13.446;2023-02-02T05:57:48;5.20;99.90
11991;DHT22;6055;52.522;13.446;2023-02-02T06:24:06;5.30;99.90
11991;DHT22;6055;52.522;13.446;2023-02-02T06:41:23;5.30;99.90
11991;DHT22;6055;52.522;13.446;2023-02-02T08:21:36;5.20;99.90
11991;DHT22;6055;52.522;13.446;2023-02-02T08:24:24;5.30;99.90
11991;DHT22;6055;52.522;13.446;2023-02-02T08:26:58;5.30;99.90
11991;DHT22;6055;52.522;13.446;2023-02-02T09:42:57;6.00;99.90
11991;DHT22;6055;52.522;13.446;2023-02-02T10:49:39;6.80;99.90
11991;DHT22;6055;52.522;13.446;2023-02-02T10:52:18;6.80;99.90
11991;DHT22;6055;52.522;13.446;2023-02-02T10:55:18;6.80;99.90
11991;DHT22;6055;52.522;13.446;2023-02-02T11:01:32;6.70;99.90
11991;DHT22;6055;52.522;13.446;2023-02-02T11:28:24;7.00;99.90
11991;DHT22;6055;52.522;13.446;2023-02-02T11:39:05;7.30;99.90
11991;DHT22;6055;52.522;13.446;2023-02-02T11:41:51;7.30;99.90
11991;DHT22;6055;52.522;13.446;2023-02-02T11:52:43;7.40;99.90
11991;DHT22;6055;52.522;13.446;2023-02-02T12:24:32;6.70;99.90
11991;DHT22;6055;52.522;13.446;2023-02-02T12:27:31;6.70;99.90
11991;DHT22;6055;52.522;13.446;2023-02-02T12:30:28;6.60;99.90
11991;DHT22;6055;52.522;13.446;2023-02-02T12:33:16;6.50;99.90
11991;DHT22;6055;52.522;13.446;2023-02-02T13:05:52;7.80;99.90
11991;DHT22;6055;52.522;13.446;2023-02-02T13:11:53;9.50;99.90
11991;DHT22;6055;52.522;13.446;2023-02-02T13:17:58;10.30;99.00
11991;DHT22;6055;52.522;13.446;2023-02-02T13:26:27;9.80;97.10
11991;DHT22;6055;52.522;13.446;2023-02-02T13:29:25;9.20;98.90
11991;DHT22;6055;52.522;13.446;2023-02-02T13:32:03;8.70;99.10
11991;DHT22;6055;52.522;13.446;2023-02-02T13:34:43;8.00;99.90
11991;DHT22;6055;52.522;13.446;2023-02-02T13:37:26;7.70;99.90
11991;DHT22;6055;52.522;13.446;2023-02-02T13:40:08;7.70;99.90
11991;DHT22;6055;52.522;13.446;2023-02-02T13:42:48;7.80;99.90
11991;DHT22;6055;52.522;13.446;2023-02-02T13:45:54;7.70;99.90
11991;DHT22;6055;52.522;13.446;2023-02-02T13:51:19;7.40;99.90
11991;DHT22;6055;52.522;13.446;2023-02-02T13:56:38;7.50;99.90
11991;DHT22;6055;52.522;13.446;2023-02-02T13:59:19;7.70;99.90
11991;DHT22;6055;52.522;13.446;2023-02-02T14:01:55;8.00;99.30
11991;DHT22;6055;52.522;13.446;2023-02-02T14:08:20;8.30;97.90
11991;DHT22;6055;52.522;13.446;2023-02-02T14:11:41;8.40;97.50
11991;DHT22;6055;52.522;13.446;2023-02-02T14:31:39;7.60;99.40
11991;DHT22;6055;52.522;13.446;2023-02-02T14:44:07;7.40;99.70
11991;DHT22;6055;52.522;13.446;2023-02-02T14:49:58;6.70;99.90
11991;DHT22;6055;52.522;13.446;2023-02-02T14:52:25;6.50;99.90
11991;DHT22;6055;52.522;13.446;2023-02-02T15:06:38;6.30;99.90
11991;DHT22;6055;52.522;13.446;2023-02-02T15:20:15;6.30;99.90
11991;DHT22;6055;52.522;13.446;2023-02-02T15:23:04;6.20;99.90
11991;DHT22;6055;52.522;13.446;2023-02-02T15:25:39;6.10;99.90
11991;DHT22;6055;52.522;13.446;2023-02-02T15:33:57;5.80;99.90
11991;DHT22;6055;52.522;13.446;2023-02-02T15:36:30;5.70;99.90
11991;DHT22;6055;52.522;13.446;2023-02-02T15:39:09;5.60;99.90
11991;DHT22;6055;52.522;13.446;2023-02-02T15:41:41;5.50;99.90
11991;DHT22;6055;52.522;13.446;2023-02-02T15:44:27;5.50;99.90
11991;DHT22;6055;52.522;13.446;2023-02-02T15:46:54;5.40;99.90
11991;DHT22;6055;52.522;13.446;2023-02-02T15:49:27;5.30;99.90
11991;DHT22;6055;52.522;13.446;2023-02-02T15:51:58;5.30;99.90
11991;DHT22;6055;52.522;13.446;2023-02-02T15:54:27;5.20;99.90
11991;DHT22;6055;52.522;13.446;2023-02-02T15:56:54;5.10;99.90
11991;DHT22;6055;52.522;13.446;2023-02-02T15:59:24;5.10;99.90
11991;DHT22;6055;52.522;13.446;2023-02-02T16:04:39;4.90;99.90
11991;DHT22;6055;52.522;13.446;2023-02-02T16:07:09;4.80;99.90
11991;DHT22;6055;52.522;13.446;2023-02-02T16:09:37;4.80;99.90
11991;DHT22;6055;52.522;13.446;2023-02-02T16:12:04;4.80;99.90
11991;DHT22;6055;52.522;13.446;2023-02-02T16:14:31;4.70;99.90
11991;DHT22;6055;52.522;13.446;2023-02-02T16:17:30;4.70;99.90
11991;DHT22;6055;52.522;13.446;2023-02-02T16:20:12;4.60;99.90
11991;DHT22;6055;52.522;13.446;2023-02-02T16:22:39;4.60;99.90
11991;DHT22;6055;52.522;13.446;2023-02-02T16:25:08;4.60;99.90
11991;DHT22;6055;52.522;13.446;2023-02-02T16:27:36;4.50;99.90
11991;DHT22;6055;52.522;13.446;2023-02-02T16:30:08;4.50;99.90
11991;DHT22;6055;52.522;13.446;2023-02-02T16:32:35;4.50;99.90
11991;DHT22;6055;52.522;13.446;2023-02-02T16:35:04;4.40;99.90
11991;DHT22;6055;52.522;13.446;2023-02-02T16:37:34;4.40;99.90
11991;DHT22;6055;52.522;13.446;2023-02-02T16:40:26;4.40;99.90
11991;DHT22;6055;52.522;13.446;2023-02-02T16:43:18;4.40;99.90
11991;DHT22;6055;52.522;13.446;2023-02-02T16:45:50;4.40;99.90
11991;DHT22;6055;52.522;13.446;2023-02-02T16:48:39;4.30;99.90
11991;DHT22;6055;52.522;13.446;2023-02-02T16:53:44;4.30;99.90
11991;DHT22;6055;52.522;13.446;2023-02-02T16:56:32;4.20;99.90
11991;DHT22;6055;52.522;13.446;2023-02-02T16:59:02;4.20;99.90
11991;DHT22;6055;52.522;13.446;2023-02-02T17:01:37;4.20;99.90
11991;DHT22;6055;52.522;13.446;2023-02-02T17:04:05;4.20;99.90
11991;DHT22;6055;52.522;13.446;2023-02-02T17:18:49;4.10;99.90
11991;DHT22;6055;52.522;13.446;2023-02-02T17:28:42;4.00;99.90
11991;DHT22;6055;52.522;13.446;2023-02-02T17:54:49;3.80;99.90
11991;DHT22;6055;52.522;13.446;2023-02-02T17:57:47;3.80;99.90
11991;DHT22;6055;52.522;13.446;2023-02-02T18:11:30;3.70;99.90
11991;DHT22;6055;52.522;13.446;2023-02-02T18:40:56;3.70;99.90
11991;DHT22;6055;52.522;13.446;2023-02-02T18:43:40;3.60;99.90
11991;DHT22;6055;52.522;13.446;2023-02-02T18:46:26;3.60;99.90
11991;DHT22;6055;52.522;13.446;2023-02-02T18:48:51;3.60;99.90
11991;DHT22;6055;52.522;13.446;2023-02-02T18:51:17;3.60;99.90
11991;DHT22;6055;52.522;13.446;2023-02-02T18:53:43;3.60;99.90
11991;DHT22;6055;52.522;13.446;2023-02-02T18:56:10;3.60;99.90
11991;DHT22;6055;52.522;13.446;2023-02-02T18:58:37;3.60;99.90
11991;DHT22;6055;52.522;13.446;2023-02-02T19:01:07;3.60;99.90
11991;DHT22;6055;52.522;13.446;2023-02-02T19:03:33;3.60;99.90
11991;DHT22;6055;52.522;13.446;2023-02-02T19:06:04;3.60;99.90
11991;DHT22;6055;52.522;13.446;2023-02-02T19:08:48;3.60;99.90
11991;DHT22;6055;52.522;13.446;2023-02-02T19:11:22;3.60;99.90
11991;DHT22;6055;52.522;13.446;2023-02-02T19:13:47;3.60;99.90
11991;DHT22;6055;52.522;13.446;2023-02-02T19:16:23;3.60;99.90
11991;DHT22;6055;52.522;13.446;2023-02-02T19:18:50;3.60;99.90
11991;DHT22;6055;52.522;13.446;2023-02-02T19:21:15;3.60;99.90
11991;DHT22;6055;52.522;13.446;2023-02-02T19:23:42;3.50;99.90
11991;DHT22;6055;52.522;13.446;2023-02-02T19:26:20;3.50;99.90
11991;DHT22;6055;52.522;13.446;2023-02-02T19:28:47;3.50;99.90
11991;DHT22;6055;52.522;13.446;2023-02-02T19:31:13;3.50;99.90
11991;DHT22;6055;52.522;13.446;2023-02-02T19:33:45;3.50;99.90
11991;DHT22;6055;52.522;13.446;2023-02-02T19:36:17;3.50;99.90
11991;DHT22;6055;52.522;13.446;2023-02-02T19:38:43;3.40;99.90
11991;DHT22;6055;52.522;13.446;2023-02-02T19:41:20;3.40;99.90
11991;DHT22;6055;52.522;13.446;2023-02-02T19:43:48;3.40;99.90
11991;DHT22;6055;52.522;13.446;2023-02-02T19:46:19;3.50;99.90
11991;DHT22;6055;52.522;13.446;2023-02-02T19:48:46;3.40;99.90
11991;DHT22;6055;52.522;13.446;2023-02-02T19:51:41;3.50;99.90
11991;DHT22;6055;52.522;13.446;2023-02-02T19:54:36;3.50;99.90
11991;DHT22;6055;52.522;13.446;2023-02-02T19:59:37;3.50;99.90
11991;DHT22;6055;52.522;13.446;2023-02-02T20:02:37;3.40;99.90
11991;DHT22;6055;52.522;13.446;2023-02-02T20:05:16;3.50;99.90
11991;DHT22;6055;52.522;13.446;2023-02-02T20:07:42;3.50;99.90
11991;DHT22;6055;52.522;13.446;2023-02-02T20:10:18;3.40;99.90
11991;DHT22;6055;52.522;13.446;2023-02-02T20:12:44;3.40;99.90
11991;DHT22;6055;52.522;13.446;2023-02-02T20:15:33;3.40;99.90
11991;DHT22;6055;52.522;13.446;2023-02-02T20:18:02;3.40;99.90
11991;DHT22;6055;52.522;13.446;2023-02-02T20:20:33;3.40;99.90
11991;DHT22;6055;52.522;13.446;2023-02-02T20:23:00;3.40;99.90
11991;DHT22;6055;52.522;13.446;2023-02-02T20:25:26;3.40;99.90
11991;DHT22;6055;52.522;13.446;2023-02-02T20:27:53;3.40;99.90
11991;DHT22;6055;52.522;13.446;2023-02-02T20:30:26;3.40;99.90
11991;DHT22;6055;52.522;13.446;2023-02-02T20:32:54;3.40;99.90
11991;DHT22;6055;52.522;13.446;2023-02-02T20:37:58;3.40;99.90
11991;DHT22;6055;52.522;13.446;2023-02-02T20:40:26;3.30;99.90
11991;DHT22;6055;52.522;13.446;2023-02-02T20:42:53;3.40;99.90
11991;DHT22;6055;52.522;13.446;2023-02-02T20:45:19;3.40;99.90
11991;DHT22;6055;52.522;13.446;2023-02-02T20:47:47;3.40;99.90
11991;DHT22;6055;52.522;13.446;2023-02-02T20:50:15;3.40;99.90
11991;DHT22;6055;52.522;13.446;2023-02-02T20:52:41;3.40;99.90
11991;DHT22;6055;52.522;13.446;2023-02-02T20:55:08;3.40;99.90
11991;DHT22;6055;52.522;13.446;2023-02-02T20:57:34;3.40;99.90
11991;DHT22;6055;52.522;13.446;2023-02-02T20:59:59;3.40;99.90
11991;DHT22;6055;52.522;13.446;2023-02-02T21:02:25;3.40;99.90
11991;DHT22;6055;52.522;13.446;2023-02-02T21:04:52;3.40;99.90
11991;DHT22;6055;52.522;13.446;2023-02-02T21:07:19;3.40;99.90
11991;DHT22;6055;52.522;13.446;2023-02-02T21:09:47;3.40;99.90
11991;DHT22;6055;52.522;13.446;2023-02-02T21:12:13;3.40;99.90
11991;DHT22;6055;52.522;13.446;2023-02-02T21:14:39;3.40;99.90
11991;DHT22;6055;52.522;13.446;2023-02-02T21:17:05;3.40;99.90
11991;DHT22;6055;52.522;13.446;2023-02-02T21:19:31;3.40;99.90
11991;DHT22;6055;52.522;13.446;2023-02-02T21:21:56;3.40;99.90
11991;DHT22;6055;52.522;13.446;2023-02-02T21:24:25;3.30;99.90
11991;DHT22;6055;52.522;13.446;2023-02-02T21:26:50;3.30;99.90
11991;DHT22;6055;52.522;13.446;2023-02-02T21:29:16;3.30;99.90
11991;DHT22;6055;52.522;13.446;2023-02-02T21:31:42;3.40;99.90
11991;DHT22;6055;52.522;13.446;2023-02-02T21:34:10;3.40;99.90
11991;DHT22;6055;52.522;13.446;2023-02-02T21:36:45;3.40;99.90
11991;DHT22;6055;52.522;13.446;2023-02-02T21:39:41;3.40;99.90
11991;DHT22;6055;52.522;13.446;2023-02-02T21:42:20;3.40;99.90
11991;DHT22;6055;52.522;13.446;2023-02-02T21:44:57;3.30;99.90
11991;DHT22;6055;52.522;13.446;2023-02-02T21:47:36;3.30;99.90
11991;DHT22;6055;52.522;13.446;2023-02-02T21:50:18;3.30;99.90
11991;DHT22;6055;52.522;13.446;2023-02-02T21:52:44;3.30;99.90
11991;DHT22;6055;52.522;13.446;2023-02-02T21:57:57;3.30;99.90
11991;DHT22;6055;52.522;13.446;2023-02-02T22:00:32;3.30;99.90
11991;DHT22;6055;52.522;13.446;2023-02-02T22:02:58;3.30;99.90
11991;DHT22;6055;52.522;13.446;2023-02-02T22:05:29;3.30;99.90
11991;DHT22;6055;52.522;13.446;2023-02-02T22:07:57;3.30;99.90
11991;DHT22;6055;52.522;13.446;2023-02-02T22:10:38;3.30;99.90
11991;DHT22;6055;52.522;13.446;2023-02-02T22:13:17;3.30;99.90
11991;DHT22;6055;52.522;13.446;2023-02-02T22:15:48;3.30;99.90
11991;DHT22;6055;52.522;13.446;2023-02-02T22:18:19;3.30;99.90
11991;DHT22;6055;52.522;13.446;2023-02-02T22:20:46;3.30;99.90
11991;DHT22;6055;52.522;13.446;2023-02-02T22:23:15;3.40;99.90
11991;DHT22;6055;52.522;13.446;2023-02-02T22:25:43;3.40;99.90
11991;DHT22;6055;52.522;13.446;2023-02-02T22:28:27;3.40;99.90
11991;DHT22;6055;52.522;13.446;2023-02-02T22:30:54;3.40;99.90
11991;DHT22;6055;52.522;13.446;2023-02-02T22:33:21;3.40;99.90
11991;DHT22;6055;52.522;13.446;2023-02-02T22:35:47;3.40;99.90
11991;DHT22;6055;52.522;13.446;2023-02-02T22:38:18;3.40;99.90
11991;DHT22;6055;52.522;13.446;2023-02-02T22:40:45;3.50;99.90
11991;DHT22;6055;52.522;13.446;2023-02-02T22:43:10;3.50;99.90
11991;DHT22;6055;52.522;13.446;2023-02-02T22:45:38;3.50;99.90
11991;DHT22;6055;52.522;13.446;2023-02-02T22:48:04;3.50;99.90
11991;DHT22;6055;52.522;13.446;2023-02-02T22:50:30;3.60;99.90
11991;DHT22;6055;52.522;13.446;2023-02-02T22:52:56;3.60;99.90
11991;DHT22;6055;52.522;13.446;2023-02-02T22:55:22;3.60;99.90
11991;DHT22;6055;52.522;13.446;2023-02-02T22:57:48;3.60;99.90
11991;DHT22;6055;52.522;13.446;2023-02-02T23:00:17;3.60;99.90
11991;DHT22;6055;52.522;13.446;2023-02-02T23:02:43;3.60;99.90
11991;DHT22;6055;52.522;13.446;2023-02-02T23:05:11;3.60;99.90
11991;DHT22;6055;52.522;13.446;2023-02-02T23:07:37;3.60;99.90
11991;DHT22;6055;52.522;13.446;2023-02-02T23:10:05;3.60;99.90
11991;DHT22;6055;52.522;13.446;2023-02-02T23:12:30;3.60;99.90
11991;DHT22;6055;52.522;13.446;2023-02-02T23:14:56;3.60;99.90
11991;DHT22;6055;52.522;13.446;2023-02-02T23:17:21;3.60;99.90
11991;DHT22;6055;52.522;13.446;2023-02-02T23:19:47;3.60;99.90
11991;DHT22;6055;52.522;13.446;2023-02-02T23:22:12;3.60;99.90
11991;DHT22;6055;52.522;13.446;2023-02-02T23:24:38;3.60;99.90
11991;DHT22;6055;52.522;13.446;2023-02-02T23:27:03;3.60;99.90
11991;DHT22;6055;52.522;13.446;2023-02-02T23:29:29;3.60;99.90
11991;DHT22;6055;52.522;13.446;2023-02-02T23:31:54;3.60;99.90
11991;DHT22;6055;52.522;13.446;2023-02-02T23:34:20;3.60;99.90
11991;DHT22;6055;52.522;13.446;2023-02-02T23:36:45;3.60;99.90
11991;DHT22;6055;52.522;13.446;2023-02-02T23:39:11;3.60;99.90
11991;DHT22;6055;52.522;13.446;2023-02-02T23:41:36;3.60;99.90
11991;DHT22;6055;52.522;13.446;2023-02-02T23:44:02;3.60;99.90
11991;DHT22;6055;52.522;13.446;2023-02-02T23:46:28;3.60;99.90
11991;DHT22;6055;52.522;13.446;2023-02-02T23:48:54;3.60;99.90
11991;DHT22;6055;52.522;13.446;2023-02-02T23:51:19;3.60;99.90
11991;DHT22;6055;52.522;13.446;2023-02-02T23:53:45;3.60;99.90
11991;DHT22;6055;52.522;13.446;2023-02-02T23:56:11;3.60;99.90
11991;DHT22;6055;52.522;13.446;2023-02-02T23:58:37;3.60;99.90
